createdAt,value
2022-10-11T00:00:19.364Z,14.10
2022-10-11T00:02:46.747Z,14.10
2022-10-11T00:05:14.088Z,14.10
2022-10-11T00:07:41.381Z,14.10
2022-10-11T00:10:09.866Z,14.10
2022-10-11T00:12:37.323Z,14.10
2022-10-11T00:15:06.303Z,14.10
2022-10-11T00:17:34.535Z,14.10
2022-10-11T00:20:01.764Z,14.10
2022-10-11T00:22:29.237Z,14.10
2022-10-11T00:24:58.764Z,14.10
2022-10-11T00:27:26.141Z,14.10
2022-10-11T00:29:53.419Z,14.10
2022-10-11T00:32:21.092Z,14.10
2022-10-11T00:34:48.339Z,14.10
2022-10-11T00:37:15.655Z,14.10
2022-10-11T00:39:43.121Z,14.10
2022-10-11T00:42:15.520Z,14.10
2022-10-11T00:44:46.381Z,14.10
2022-10-11T00:47:19.134Z,14.20
2022-10-11T00:49:52.960Z,14.20
2022-10-11T00:52:29.119Z,14.20
2022-10-11T00:55:03.188Z,14.20
2022-10-11T00:57:33.943Z,14.10
2022-10-11T01:00:01.831Z,14.20
2022-10-11T01:02:30.283Z,14.20
2022-10-11T01:05:25.367Z,14.20
2022-10-11T01:07:46.737Z,14.20
2022-10-11T01:10:14.787Z,14.20
2022-10-11T01:13:03.753Z,14.20
2022-10-11T01:15:42.571Z,14.20
2022-10-11T01:18:30.888Z,14.10
2022-10-11T01:21:22.576Z,14.20
2022-10-11T01:23:52.827Z,14.20
2022-10-11T01:26:50.557Z,14.20
2022-10-11T01:29:55.735Z,14.20
2022-10-11T01:32:31.958Z,14.20
2022-10-11T01:35:24.722Z,14.20
2022-10-11T01:38:07.507Z,14.20
2022-10-11T01:40:45.495Z,14.20
2022-10-11T01:43:14.087Z,14.20
2022-10-11T01:45:43.304Z,14.20
2022-10-11T01:48:13.455Z,14.20
2022-10-11T01:50:47.855Z,14.30
2022-10-11T01:53:33.910Z,14.30
2022-10-11T01:56:45.863Z,14.40
2022-10-11T01:59:53.979Z,14.40
2022-10-11T02:02:45.844Z,14.40
2022-10-11T02:05:25.247Z,14.40
2022-10-11T02:08:00.884Z,14.40
2022-10-11T02:10:34.071Z,14.40
2022-10-11T02:13:04.225Z,14.40
2022-10-11T02:15:34.147Z,14.40
2022-10-11T02:18:06.835Z,14.40
2022-10-11T02:20:34.763Z,14.40
2022-10-11T02:23:09.688Z,14.40
2022-10-11T02:25:37.969Z,14.40
2022-10-11T02:28:11.744Z,14.40
2022-10-11T02:30:41.856Z,14.40
2022-10-11T02:33:12.964Z,14.40
2022-10-11T02:35:44.919Z,14.40
2022-10-11T02:38:24.410Z,14.40
2022-10-11T02:40:58.183Z,14.30
2022-10-11T02:43:39.450Z,14.30
2022-10-11T02:46:08.740Z,14.30
2022-10-11T02:48:37.434Z,14.20
2022-10-11T02:51:05.191Z,14.30
2022-10-11T02:53:33.737Z,14.30
2022-10-11T02:56:01.142Z,14.30
2022-10-11T02:58:28.454Z,14.30
2022-10-11T03:00:56.050Z,14.40
2022-10-11T03:03:23.271Z,14.40
2022-10-11T03:05:50.509Z,14.40
2022-10-11T03:08:17.830Z,14.30
2022-10-11T03:10:45.476Z,14.30
2022-10-11T03:13:17.271Z,14.40
2022-10-11T03:16:01.931Z,14.30
2022-10-11T03:18:30.742Z,14.30
2022-10-11T03:20:58.035Z,14.30
2022-10-11T03:23:25.339Z,14.30
2022-10-11T03:25:52.730Z,14.20
2022-10-11T03:28:21.163Z,14.20
2022-10-11T03:30:49.667Z,14.10
2022-10-11T03:33:17.683Z,14.20
2022-10-11T03:35:46.318Z,14.20
2022-10-11T03:38:15.706Z,14.10
2022-10-11T03:40:43.443Z,14.10
2022-10-11T03:43:11.102Z,14.10
2022-10-11T03:45:38.685Z,14.10
2022-10-11T03:48:06.306Z,14.10
2022-10-11T03:50:33.740Z,14.10
2022-10-11T03:53:01.120Z,14.10
2022-10-11T03:55:28.503Z,14.10
2022-10-11T03:57:56.072Z,14.00
2022-10-11T04:00:23.549Z,14.00
2022-10-11T04:02:50.776Z,14.10
2022-10-11T04:05:18.142Z,14.10
2022-10-11T04:07:45.522Z,14.10
2022-10-11T04:10:13.103Z,14.10
2022-10-11T04:12:40.363Z,14.20
2022-10-11T04:15:08.023Z,14.20
2022-10-11T04:17:35.600Z,14.20
2022-10-11T04:20:03.090Z,14.20
2022-10-11T04:22:30.301Z,14.20
2022-10-11T04:24:58.054Z,14.20
2022-10-11T04:27:28.500Z,14.20
2022-10-11T04:29:55.812Z,14.20
2022-10-11T04:32:23.156Z,14.20
2022-10-11T04:34:51.423Z,14.20
2022-10-11T04:37:19.432Z,14.20
2022-10-11T04:39:47.052Z,14.10
2022-10-11T04:42:14.320Z,14.10
2022-10-11T04:44:41.931Z,14.00
2022-10-11T04:47:09.301Z,14.00
2022-10-11T04:49:36.603Z,14.00
2022-10-11T04:52:04.120Z,14.00
2022-10-11T04:54:31.347Z,14.00
2022-10-11T04:56:58.727Z,14.00
2022-10-11T04:59:26.092Z,14.00
2022-10-11T05:01:53.442Z,14.00
2022-10-11T05:04:20.822Z,14.00
2022-10-11T05:06:48.027Z,14.00
2022-10-11T05:09:15.316Z,14.00
2022-10-11T05:11:42.538Z,14.00
2022-10-11T05:14:10.103Z,14.00
2022-10-11T05:16:37.467Z,13.90
2022-10-11T05:19:04.828Z,13.90
2022-10-11T05:21:32.285Z,13.80
2022-10-11T05:23:59.716Z,13.80
2022-10-11T05:26:28.501Z,13.80
2022-10-11T05:28:55.932Z,13.80
2022-10-11T05:31:23.963Z,13.80
2022-10-11T05:33:51.198Z,13.70
2022-10-11T05:36:18.681Z,13.70
2022-10-11T05:38:46.110Z,13.70
2022-10-11T05:41:15.205Z,13.60
2022-10-11T05:43:44.401Z,13.60
2022-10-11T05:46:12.759Z,13.60
2022-10-11T05:48:40.511Z,13.50
2022-10-11T05:51:09.947Z,13.50
2022-10-11T05:53:37.880Z,13.50
2022-10-11T05:56:05.955Z,13.50
2022-10-11T05:58:33.799Z,13.50
2022-10-11T06:01:01.213Z,13.50
2022-10-11T06:03:28.469Z,13.60
2022-10-11T06:05:57.338Z,13.70
2022-10-11T06:08:24.750Z,13.70
2022-10-11T06:10:51.992Z,13.80
2022-10-11T06:13:19.576Z,14.00
2022-10-11T06:15:46.930Z,14.10
2022-10-11T06:18:15.159Z,14.20
2022-10-11T06:20:42.398Z,14.40
2022-10-11T06:23:09.606Z,14.60
2022-10-11T06:25:37.163Z,14.70
2022-10-11T06:28:04.428Z,14.80
2022-10-11T06:30:31.689Z,14.90
2022-10-11T06:33:02.460Z,15.00
2022-10-11T06:35:32.140Z,15.10
2022-10-11T06:37:59.494Z,15.10
2022-10-11T06:40:26.975Z,15.00
2022-10-11T06:42:54.266Z,15.10
2022-10-11T06:45:21.595Z,15.20
2022-10-11T06:47:48.901Z,15.30
2022-10-11T06:50:16.240Z,15.50
2022-10-11T06:52:43.471Z,15.70
2022-10-11T06:55:10.711Z,15.80
2022-10-11T06:57:38.139Z,15.90
2022-10-11T07:00:10.314Z,16.00
2022-10-11T07:02:40.344Z,16.00
2022-10-11T07:05:08.541Z,16.10
2022-10-11T07:07:35.759Z,16.10
2022-10-11T07:10:03.383Z,16.20
2022-10-11T07:12:30.600Z,16.30
2022-10-11T07:14:57.980Z,16.40
2022-10-11T07:17:26.620Z,16.40
2022-10-11T07:19:54.000Z,16.50
2022-10-11T07:22:21.356Z,16.70
2022-10-11T07:24:49.168Z,16.80
2022-10-11T07:27:16.407Z,16.80
2022-10-11T07:29:43.689Z,16.90
2022-10-11T07:32:11.158Z,16.90
2022-10-11T07:34:38.368Z,16.90
2022-10-11T07:37:05.696Z,17.00
2022-10-11T07:39:32.938Z,17.10
2022-10-11T07:42:00.204Z,17.10
2022-10-11T07:44:27.582Z,17.10
2022-10-11T07:46:54.842Z,17.20
2022-10-11T07:49:22.206Z,17.30
2022-10-11T07:51:49.521Z,17.40
2022-10-11T07:54:16.726Z,17.50
2022-10-11T07:56:44.083Z,17.60
2022-10-11T07:59:11.656Z,17.70
2022-10-11T08:01:39.036Z,17.70
2022-10-11T08:04:06.303Z,17.70
2022-10-11T08:06:33.658Z,17.80
2022-10-11T08:09:01.367Z,18.00
2022-10-11T08:11:37.373Z,18.10
2022-10-11T08:14:08.676Z,18.20
2022-10-11T08:16:36.933Z,18.30
2022-10-11T08:19:05.297Z,18.40
2022-10-11T08:21:33.188Z,18.60
2022-10-11T08:24:03.029Z,18.60
2022-10-11T08:26:30.891Z,18.70
2022-10-11T08:28:58.947Z,18.60
2022-10-11T08:31:26.184Z,18.60
2022-10-11T08:33:53.428Z,18.70
2022-10-11T08:36:20.822Z,18.90
2022-10-11T08:38:48.057Z,18.90
2022-10-11T08:41:27.204Z,18.90
2022-10-11T08:44:06.682Z,18.90
2022-10-11T08:46:35.221Z,18.90
2022-10-11T08:49:03.104Z,18.90
2022-10-11T08:51:50.248Z,19.00
2022-10-11T08:54:21.164Z,19.00
2022-10-11T08:56:49.434Z,19.10
2022-10-11T08:59:37.492Z,19.20
2022-10-11T09:02:55.600Z,19.20
2022-10-11T09:05:20.618Z,19.20
2022-10-11T09:08:30.090Z,19.30
2022-10-11T09:11:13.629Z,19.30
2022-10-11T09:13:47.047Z,19.50
2022-10-11T09:16:42.765Z,19.50
2022-10-11T09:19:18.946Z,19.70
2022-10-11T09:22:10.562Z,19.90
2022-10-11T09:24:59.781Z,20.00
2022-10-11T09:27:57.806Z,20.00
2022-10-11T09:30:22.255Z,20.20
2022-10-11T09:33:08.275Z,20.10
2022-10-11T09:35:47.091Z,20.10
2022-10-11T09:38:42.093Z,20.20
2022-10-11T09:41:15.392Z,20.20
2022-10-11T09:43:48.626Z,20.30
2022-10-11T09:46:37.970Z,20.30
2022-10-11T09:49:12.096Z,20.30
2022-10-11T09:51:43.356Z,20.40
2022-10-11T09:54:10.891Z,20.60
2022-10-11T09:56:43.706Z,20.70
2022-10-11T09:59:33.403Z,20.70
2022-10-11T10:02:12.913Z,20.80
2022-10-11T10:05:02.640Z,20.80
2022-10-11T10:07:31.991Z,20.80
2022-10-11T10:09:59.887Z,20.90
2022-10-11T10:12:30.649Z,20.90
2022-10-11T10:15:30.008Z,21.00
2022-10-11T10:17:57.981Z,21.00
2022-10-11T10:20:33.694Z,21.00
2022-10-11T10:23:23.641Z,21.00
2022-10-11T10:25:51.752Z,21.00
2022-10-11T10:28:25.070Z,21.10
2022-10-11T10:30:59.412Z,21.30
2022-10-11T10:33:33.223Z,21.30
2022-10-11T10:36:09.253Z,21.40
2022-10-11T10:38:46.504Z,21.40
2022-10-11T10:41:18.128Z,21.40
2022-10-11T10:43:53.586Z,21.40
2022-10-11T10:46:26.493Z,21.50
2022-10-11T10:49:34.525Z,21.50
2022-10-11T10:52:03.074Z,21.60
2022-10-11T10:54:39.283Z,21.60
2022-10-11T10:57:26.044Z,21.70
2022-10-11T11:00:02.050Z,21.70
2022-10-11T11:02:48.407Z,21.60
2022-10-11T11:05:45.892Z,21.70
2022-10-11T11:08:17.438Z,21.70
2022-10-11T11:11:15.257Z,21.70
2022-10-11T11:14:09.170Z,21.80
2022-10-11T11:16:47.611Z,21.90
2022-10-11T11:19:21.069Z,21.80
2022-10-11T11:22:33.393Z,21.70
2022-10-11T11:25:25.906Z,21.80
2022-10-11T11:28:28.158Z,21.90
2022-10-11T11:31:24.457Z,21.80
2022-10-11T11:34:21.872Z,21.70
2022-10-11T11:36:56.683Z,21.80
2022-10-11T11:39:30.219Z,21.90
2022-10-11T11:42:08.058Z,22.00
2022-10-11T11:44:42.605Z,22.00
2022-10-11T11:47:29.211Z,22.00
2022-10-11T11:50:01.499Z,22.00
2022-10-11T11:52:45.579Z,21.90
2022-10-11T11:55:35.590Z,21.90
2022-10-11T11:58:17.597Z,21.80
2022-10-11T12:01:01.416Z,21.80
2022-10-11T12:03:37.992Z,21.90
2022-10-11T12:06:15.191Z,22.00
2022-10-11T12:08:45.868Z,22.00
2022-10-11T12:11:33.139Z,22.10
2022-10-11T12:14:23.244Z,22.10
2022-10-11T12:17:09.410Z,22.10
2022-10-11T12:19:40.191Z,22.20
2022-10-11T12:23:00.446Z,22.20
2022-10-11T12:25:28.591Z,22.10
2022-10-11T12:28:22.142Z,22.30
2022-10-11T12:30:52.580Z,22.20
2022-10-11T12:33:25.555Z,22.20
2022-10-11T12:36:05.672Z,22.10
2022-10-11T12:38:40.073Z,22.20
2022-10-11T12:41:10.463Z,22.20
2022-10-11T12:43:50.314Z,22.20
2022-10-11T12:46:29.756Z,22.10
2022-10-11T12:49:36.401Z,22.10
2022-10-11T12:52:20.080Z,22.20
2022-10-11T12:55:06.000Z,22.20
2022-10-11T12:57:56.487Z,22.20
2022-10-11T13:00:34.420Z,22.10
2022-10-11T13:03:32.672Z,22.20
2022-10-11T13:06:10.131Z,22.20
2022-10-11T13:08:41.115Z,22.30
2022-10-11T13:11:11.403Z,22.30
2022-10-11T13:13:50.764Z,22.20
2022-10-11T13:16:22.083Z,22.20
2022-10-11T13:18:53.843Z,22.30
2022-10-11T13:21:36.914Z,22.30
2022-10-11T13:24:11.771Z,22.50
2022-10-11T13:26:39.829Z,22.50
2022-10-11T13:29:21.527Z,22.40
2022-10-11T13:31:49.571Z,22.40
2022-10-11T13:34:22.362Z,22.40
2022-10-11T13:36:58.915Z,22.40
2022-10-11T13:39:34.051Z,22.40
2022-10-11T13:42:07.001Z,22.50
2022-10-11T13:44:36.260Z,22.50
2022-10-11T13:47:04.257Z,22.50
2022-10-11T13:49:37.361Z,22.40
2022-10-11T13:52:19.261Z,22.50
2022-10-11T13:55:05.783Z,22.50
2022-10-11T13:57:40.560Z,22.50
2022-10-11T14:00:22.327Z,22.50
2022-10-11T14:03:03.793Z,22.50
2022-10-11T14:05:43.849Z,22.50
2022-10-11T14:08:26.414Z,22.40
2022-10-11T14:10:57.762Z,22.30
2022-10-11T14:13:31.599Z,22.30
2022-10-11T14:16:01.319Z,22.30
2022-10-11T14:18:38.983Z,22.40
2022-10-11T14:21:27.999Z,22.40
2022-10-11T14:24:17.757Z,22.30
2022-10-11T14:26:56.211Z,22.30
2022-10-11T14:29:31.541Z,22.30
2022-10-11T14:32:06.272Z,22.20
2022-10-11T14:34:34.669Z,22.20
2022-10-11T14:37:01.966Z,22.20
2022-10-11T14:39:31.826Z,22.20
2022-10-11T14:41:59.357Z,22.10
2022-10-11T14:44:26.932Z,22.10
2022-10-11T14:46:54.915Z,22.00
2022-10-11T14:49:25.193Z,21.90
2022-10-11T14:51:54.190Z,21.80
2022-10-11T14:54:23.644Z,21.70
2022-10-11T14:56:52.520Z,21.60
2022-10-11T14:59:22.945Z,21.60
2022-10-11T15:01:54.535Z,21.50
2022-10-11T15:04:22.674Z,21.40
2022-10-11T15:06:51.812Z,21.40
2022-10-11T15:09:21.192Z,21.30
2022-10-11T15:11:49.738Z,21.30
2022-10-11T15:14:17.367Z,21.30
2022-10-11T15:16:44.612Z,21.20
2022-10-11T15:19:21.646Z,21.20
2022-10-11T15:21:49.192Z,21.10
2022-10-11T15:24:19.830Z,21.10
2022-10-11T15:26:48.203Z,21.10
2022-10-11T15:29:21.775Z,21.10
2022-10-11T15:31:49.466Z,21.00
2022-10-11T15:34:17.615Z,21.00
2022-10-11T15:36:44.859Z,20.90
2022-10-11T15:39:24.741Z,20.90
2022-10-11T15:41:52.146Z,20.80
2022-10-11T15:44:19.485Z,20.80
2022-10-11T15:46:46.834Z,20.70
2022-10-11T15:49:14.684Z,20.70
2022-10-11T15:51:41.900Z,20.60
2022-10-11T15:54:09.339Z,20.60
2022-10-11T15:56:37.724Z,20.50
2022-10-11T15:59:04.959Z,20.50
2022-10-11T16:01:32.874Z,20.40
2022-10-11T16:04:00.131Z,20.40
2022-10-11T16:06:27.901Z,20.30
2022-10-11T16:08:55.252Z,20.30
2022-10-11T16:11:22.651Z,20.30
2022-10-11T16:13:50.010Z,20.20
2022-10-11T16:16:17.304Z,20.20
2022-10-11T16:18:44.577Z,20.10
2022-10-11T16:21:15.514Z,20.00
2022-10-11T16:23:42.989Z,20.00
2022-10-11T16:26:13.923Z,19.90
2022-10-11T16:28:42.116Z,19.80
2022-10-11T16:31:11.527Z,19.80
2022-10-11T16:33:47.982Z,19.80
2022-10-11T16:36:35.223Z,19.70
2022-10-11T16:39:15.639Z,19.70
2022-10-11T16:41:43.024Z,19.60
2022-10-11T16:44:17.552Z,19.60
2022-10-11T16:46:48.371Z,19.60
2022-10-11T16:49:17.895Z,19.50
2022-10-11T16:51:45.252Z,19.50
2022-10-11T16:54:15.534Z,19.50
2022-10-11T16:56:45.458Z,19.50
2022-10-11T16:59:16.611Z,19.50
2022-10-11T17:01:45.127Z,19.40
2022-10-11T17:04:13.247Z,19.40
2022-10-11T17:06:40.892Z,19.30
2022-10-11T17:09:08.201Z,19.30
2022-10-11T17:11:35.488Z,19.30
2022-10-11T17:14:03.275Z,19.30
2022-10-11T17:16:30.644Z,19.20
2022-10-11T17:18:57.900Z,19.20
2022-10-11T17:21:25.214Z,19.20
2022-10-11T17:23:52.902Z,19.20
2022-10-11T17:26:24.778Z,19.20
2022-10-11T17:28:57.867Z,19.10
2022-10-11T17:31:25.778Z,19.10
2022-10-11T17:33:54.680Z,19.10
2022-10-11T17:36:25.430Z,19.00
2022-10-11T17:38:52.766Z,19.00
2022-10-11T17:41:20.844Z,18.90
2022-10-11T17:43:48.612Z,18.90
2022-10-11T17:46:17.122Z,18.90
2022-10-11T17:48:45.547Z,18.80
2022-10-11T17:51:18.972Z,18.80
2022-10-11T17:53:53.279Z,18.70
2022-10-11T17:56:29.606Z,18.70
2022-10-11T17:58:59.687Z,18.60
2022-10-11T18:01:29.104Z,18.60
2022-10-11T18:04:02.149Z,18.60
2022-10-11T18:06:31.840Z,18.50
2022-10-11T18:09:04.180Z,18.60
2022-10-11T18:11:31.811Z,18.50
2022-10-11T18:13:59.759Z,18.50
2022-10-11T18:16:29.261Z,18.50
2022-10-11T18:18:59.147Z,18.50
2022-10-11T18:21:34.512Z,18.50
2022-10-11T18:24:06.185Z,18.50
2022-10-11T18:26:34.177Z,18.40
2022-10-11T18:29:01.595Z,18.40
2022-10-11T18:31:30.852Z,18.40
2022-10-11T18:33:59.555Z,18.40
2022-10-11T18:36:30.211Z,18.30
2022-10-11T18:39:03.032Z,18.30
2022-10-11T18:41:33.324Z,18.30
2022-10-11T18:44:06.600Z,18.30
2022-10-11T18:46:34.783Z,18.20
2022-10-11T18:49:02.439Z,18.20
2022-10-11T18:51:35.386Z,18.30
2022-10-11T18:54:02.855Z,18.30
2022-10-11T18:56:31.334Z,18.30
2022-10-11T18:58:59.406Z,18.30
2022-10-11T19:01:32.219Z,18.30
2022-10-11T19:04:01.593Z,18.30
2022-10-11T19:06:31.596Z,18.30
2022-10-11T19:09:11.242Z,18.30
2022-10-11T19:11:39.205Z,18.30
2022-10-11T19:14:12.552Z,18.30
2022-10-11T19:16:42.109Z,18.30
2022-10-11T19:19:12.487Z,18.20
2022-10-11T19:21:41.062Z,18.20
2022-10-11T19:24:08.909Z,18.10
2022-10-11T19:26:38.575Z,18.10
2022-10-11T19:29:08.347Z,18.10
2022-10-11T19:31:40.459Z,18.10
2022-10-11T19:34:07.883Z,18.10
2022-10-11T19:36:36.899Z,18.00
2022-10-11T19:39:05.549Z,17.90
2022-10-11T19:41:33.587Z,17.90
2022-10-11T19:44:01.029Z,17.90
2022-10-11T19:49:17.877Z,17.80
2022-10-11T19:51:45.188Z,17.80
2022-10-11T19:54:14.162Z,17.80
2022-10-11T19:56:42.560Z,17.80
2022-10-11T19:59:11.273Z,17.80
2022-10-11T20:01:41.319Z,17.80
2022-10-11T20:04:27.561Z,17.80
2022-10-11T20:06:58.737Z,17.80
2022-10-11T20:09:30.682Z,17.80
2022-10-11T20:11:58.254Z,17.80
2022-10-11T20:14:25.646Z,17.80
2022-10-11T20:16:53.358Z,17.80
2022-10-11T20:19:26.261Z,17.80
2022-10-11T20:21:56.739Z,17.80
2022-10-11T20:24:24.053Z,17.80
2022-10-11T20:26:51.316Z,17.80
2022-10-11T20:29:18.639Z,17.80
2022-10-11T20:31:45.848Z,17.80
2022-10-11T20:34:13.313Z,17.80
2022-10-11T20:36:40.932Z,17.80
2022-10-11T20:39:09.972Z,17.80
2022-10-11T20:41:42.658Z,17.80
2022-10-11T20:44:11.154Z,17.80
2022-10-11T20:46:39.451Z,17.70
2022-10-11T20:49:10.362Z,17.70
2022-10-11T20:51:39.965Z,17.70
2022-10-11T20:54:07.748Z,17.70
2022-10-11T20:56:35.576Z,17.60
2022-10-11T20:59:03.374Z,17.60
2022-10-11T21:01:37.076Z,17.60
2022-10-11T21:04:05.545Z,17.50
2022-10-11T21:06:33.607Z,17.50
2022-10-11T21:09:00.899Z,17.40
2022-10-11T21:11:31.078Z,17.30
2022-10-11T21:14:00.449Z,17.30
2022-10-11T21:16:28.662Z,17.20
2022-10-11T21:18:57.935Z,17.20
2022-10-11T21:21:26.192Z,17.20
2022-10-11T21:23:54.949Z,17.20
2022-10-11T21:26:22.230Z,17.20
2022-10-11T21:28:49.763Z,17.20
2022-10-11T21:31:18.822Z,17.20
2022-10-11T21:33:46.198Z,17.20
2022-10-11T21:36:24.639Z,17.10
2022-10-11T21:38:52.978Z,17.20
2022-10-11T21:41:22.820Z,17.20
2022-10-11T21:43:50.065Z,17.10
2022-10-11T21:46:20.596Z,17.10
2022-10-11T21:48:49.996Z,17.00
2022-10-11T21:51:24.040Z,16.90
2022-10-11T21:53:51.734Z,16.80
2022-10-11T21:56:19.511Z,16.70
2022-10-11T21:58:48.484Z,16.60
2022-10-11T22:01:16.795Z,16.50
2022-10-11T22:03:44.435Z,16.40
2022-10-11T22:06:11.944Z,16.30
2022-10-11T22:08:39.816Z,16.20
2022-10-11T22:11:07.854Z,16.10
2022-10-11T22:13:35.480Z,16.00
2022-10-11T22:16:05.098Z,16.00
2022-10-11T22:18:33.797Z,16.00
2022-10-11T22:21:15.550Z,16.00
2022-10-11T22:23:44.430Z,15.90
2022-10-11T22:26:14.856Z,15.90
2022-10-11T22:28:42.727Z,15.90
2022-10-11T22:31:10.835Z,15.90
2022-10-11T22:33:38.530Z,16.00
2022-10-11T22:36:08.805Z,16.00
2022-10-11T22:38:37.472Z,16.00
2022-10-11T22:41:04.930Z,16.00
2022-10-11T22:43:32.878Z,16.10
2022-10-11T22:46:00.210Z,16.10
2022-10-11T22:48:27.574Z,16.20
2022-10-11T22:50:55.200Z,16.20
2022-10-11T22:53:22.631Z,16.30
2022-10-11T22:55:49.840Z,16.30
2022-10-11T22:58:17.507Z,16.30
2022-10-11T23:00:45.164Z,16.30
2022-10-11T23:03:13.936Z,16.30
2022-10-11T23:05:41.611Z,16.30
2022-10-11T23:08:09.585Z,16.40
2022-10-11T23:10:40.578Z,16.30
2022-10-11T23:13:07.848Z,16.30
2022-10-11T23:15:35.202Z,16.40
2022-10-11T23:18:02.438Z,16.30
2022-10-11T23:20:29.673Z,16.30
2022-10-11T23:22:56.874Z,16.40
2022-10-11T23:25:24.091Z,16.40
2022-10-11T23:27:51.319Z,16.30
2022-10-11T23:30:18.528Z,16.20
2022-10-11T23:32:45.764Z,16.20
2022-10-11T23:35:13.019Z,16.10
2022-10-11T23:37:40.413Z,16.10
2022-10-11T23:40:08.502Z,16.10
2022-10-11T23:42:35.898Z,16.10
2022-10-11T23:45:03.359Z,16.10
2022-10-11T23:47:30.785Z,16.10
2022-10-11T23:49:57.989Z,16.10
2022-10-11T23:52:25.310Z,16.10
2022-10-11T23:54:52.540Z,16.10
2022-10-11T23:57:19.768Z,16.10
2022-10-11T23:59:46.988Z,16.10
